Time;durP1;ratioP1;P1;durP2;ratioP2;P2;SDS_P1;SDS_P2;PMS_P1;PMS_P2;Temp;Humidity;BMP_temperature;BMP_pressure;BME280_temperature;BME280_humidity;BME280_pressure;Samples;Min_cycle;Max_cycle;Signal;HPM_P1;HPM_P2
2021/03/17 00:01:43;;;;;;;;;;;1.50;98.00;;;;;;5040132;28;20011;-69
2021/03/17 00:04:09;;;;;;;;;;;1.50;98.00;;;;;;5036640;28;20023;-69
2021/03/17 00:06:34;;;;;;;;;;;1.50;98.00;;;;;;5003706;28;19920;-70
2021/03/17 00:09:00;;;;;;;;;;;1.50;98.00;;;;;;5021734;28;19920;-69
2021/03/17 00:11:26;;;;;;;;;;;1.50;98.00;;;;;;5050781;28;19923;-68
2021/03/17 00:13:51;;;;;;;;;;;1.50;98.00;;;;;;5039077;28;19917;-68
2021/03/17 00:16:17;;;;;;;;;;;1.50;98.00;;;;;;5038515;28;20241;-68
2021/03/17 00:18:43;;;;;;;;;;;1.50;98.00;;;;;;5037758;28;20310;-68
2021/03/17 00:21:08;;;;;;;;;;;1.50;98.00;;;;;;5038762;28;19928;-68
2021/03/17 00:23:36;;;;;;;;;;;1.50;98.00;;;;;;5037765;28;19917;-69
2021/03/17 00:26:02;;;;;;;;;;;1.40;98.00;;;;;;5026848;28;19965;-68
2021/03/17 00:28:27;;;;;;;;;;;1.40;98.00;;;;;;5038340;28;20288;-70
2021/03/17 00:30:53;;;;;;;;;;;1.50;98.00;;;;;;5036925;28;20237;-69
2021/03/17 00:33:18;;;;;;;;;;;1.50;98.00;;;;;;5035692;28;20285;-69
2021/03/17 00:35:44;;;;;;;;;;;1.50;98.00;;;;;;5035941;28;19940;-69
2021/03/17 00:38:10;;;;;;;;;;;1.50;98.00;;;;;;5038001;28;19909;-69
2021/03/17 00:40:36;;;;;;;;;;;1.50;98.00;;;;;;5051099;28;19928;-70
2021/03/17 00:43:01;;;;;;;;;;;1.50;98.00;;;;;;5047826;28;19924;-68
2021/03/17 00:45:27;;;;;;;;;;;1.50;98.00;;;;;;5036175;28;19913;-68
2021/03/17 00:47:53;;;;;;;;;;;1.40;98.00;;;;;;5040091;28;19921;-68
2021/03/17 00:50:19;;;;;;;;;;;1.40;98.00;;;;;;5037180;28;20294;-68
2021/03/17 00:52:45;;;;;;;;;;;1.40;98.00;;;;;;5049042;28;20332;-68
2021/03/17 00:55:12;;;;;;;;;;;1.40;98.00;;;;;;5037096;28;19975;-68
2021/03/17 00:57:37;;;;;;;;;;;1.40;98.00;;;;;;5023434;28;20302;-70
2021/03/17 01:00:05;;;;;;;;;;;1.30;98.00;;;;;;5036293;28;19920;-70
2021/03/17 01:02:30;;;;;;;;;;;1.30;98.00;;;;;;5037496;28;20209;-70
2021/03/17 01:04:56;;;;;;;;;;;1.30;98.00;;;;;;5037271;28;19917;-69
2021/03/17 01:07:21;;;;;;;;;;;1.30;98.00;;;;;;5037672;28;19913;-69
2021/03/17 01:09:47;;;;;;;;;;;1.30;98.00;;;;;;5021004;28;19916;-68
2021/03/17 01:12:13;;;;;;;;;;;1.30;98.00;;;;;;5043985;28;19917;-69
2021/03/17 01:14:39;;;;;;;;;;;1.30;98.00;;;;;;5035712;28;19956;-70
2021/03/17 01:17:05;;;;;;;;;;;1.30;98.00;;;;;;5037252;28;19917;-69
2021/03/17 01:19:31;;;;;;;;;;;1.30;98.00;;;;;;5042648;28;20019;-69
2021/03/17 01:21:57;;;;;;;;;;;1.20;98.00;;;;;;5036909;28;20324;-71
2021/03/17 01:24:22;;;;;;;;;;;1.10;98.00;;;;;;5037186;28;19917;-70
2021/03/17 01:26:48;;;;;;;;;;;1.00;98.00;;;;;;5037159;28;20261;-70
2021/03/17 01:29:13;;;;;;;;;;;0.90;98.00;;;;;;5040576;28;19967;-70
2021/03/17 01:31:39;;;;;;;;;;;0.80;98.00;;;;;;5037377;28;20383;-70
2021/03/17 01:34:04;;;;;;;;;;;0.80;98.00;;;;;;5036516;28;19920;-70
2021/03/17 01:36:30;;;;;;;;;;;0.70;98.00;;;;;;5037320;28;20218;-69
2021/03/17 01:38:55;;;;;;;;;;;0.70;98.00;;;;;;5042078;28;19917;-70
2021/03/17 01:41:21;;;;;;;;;;;0.70;98.00;;;;;;5041609;28;19921;-70
2021/03/17 01:43:47;;;;;;;;;;;0.70;98.00;;;;;;5035752;28;19917;-69
2021/03/17 01:46:12;;;;;;;;;;;0.70;98.00;;;;;;5036223;28;20047;-70
2021/03/17 01:48:38;;;;;;;;;;;0.70;98.00;;;;;;5029877;28;19967;-70
2021/03/17 01:51:04;;;;;;;;;;;0.70;98.00;;;;;;5039326;28;19959;-69
2021/03/17 01:53:39;;;;;;;;;;;0.70;98.00;;;;;;5044394;28;19913;-69
2021/03/17 01:56:05;;;;;;;;;;;0.70;98.00;;;;;;5040066;28;19975;-68
2021/03/17 01:58:31;;;;;;;;;;;0.80;98.00;;;;;;5036096;28;20009;-70
2021/03/17 02:00:57;;;;;;;;;;;0.70;98.00;;;;;;5026782;28;19964;-69
2021/03/17 02:03:23;;;;;;;;;;;0.70;98.00;;;;;;5035004;28;19913;-69
2021/03/17 02:05:50;;;;;;;;;;;0.80;98.00;;;;;;5035516;28;19920;-70
2021/03/17 02:08:17;;;;;;;;;;;0.80;98.00;;;;;;5032235;28;19917;-70
2021/03/17 02:10:43;;;;;;;;;;;0.80;98.00;;;;;;5034784;28;19913;-70
2021/03/17 02:13:24;;;;;;;;;;;0.80;98.00;;;;;;5036226;28;19913;-69
2021/03/17 02:16:00;;;;;;;;;;;0.80;98.00;;;;;;5034219;28;20321;-70
2021/03/17 02:18:25;;;;;;;;;;;0.80;98.00;;;;;;5035537;28;20430;-69
2021/03/17 02:20:51;;;;;;;;;;;0.80;98.00;;;;;;5018895;28;19913;-68
2021/03/17 02:23:49;;;;;;;;;;;0.80;98.00;;;;;;5035356;28;19913;-68
2021/03/17 02:26:35;;;;;;;;;;;0.80;98.00;;;;;;4991338;28;19913;-70
2021/03/17 02:29:01;;;;;;;;;;;0.80;98.00;;;;;;5032581;28;19913;-68
2021/03/17 02:31:45;;;;;;;;;;;0.80;98.00;;;;;;5036140;28;19909;-69
2021/03/17 02:34:12;;;;;;;;;;;0.80;98.00;;;;;;5032236;28;19913;-70
2021/03/17 02:36:50;;;;;;;;;;;0.90;98.00;;;;;;5035268;28;20290;-69
2021/03/17 02:39:30;;;;;;;;;;;0.90;98.00;;;;;;5035213;28;19975;-69
2021/03/17 02:42:01;;;;;;;;;;;0.90;98.00;;;;;;5022711;28;19952;-70
2021/03/17 02:44:26;;;;;;;;;;;0.90;98.00;;;;;;5019542;28;19921;-68
2021/03/17 02:46:53;;;;;;;;;;;0.90;98.00;;;;;;5018143;28;19913;-69
2021/03/17 02:49:21;;;;;;;;;;;0.90;98.00;;;;;;5023761;28;19913;-69
2021/03/17 02:51:48;;;;;;;;;;;0.90;98.00;;;;;;5011279;28;20318;-69
2021/03/17 02:54:16;;;;;;;;;;;1.00;98.00;;;;;;5021190;28;19925;-70
2021/03/17 02:56:44;;;;;;;;;;;1.00;98.00;;;;;;5015593;28;19944;-69
2021/03/17 02:59:10;;;;;;;;;;;1.00;98.00;;;;;;5009336;28;19917;-70
2021/03/17 03:01:36;;;;;;;;;;;0.90;98.00;;;;;;5019419;28;20367;-70
2021/03/17 03:04:03;;;;;;;;;;;0.90;98.00;;;;;;5015365;28;21235;-70
2021/03/17 03:06:30;;;;;;;;;;;0.90;98.00;;;;;;5021413;28;19913;-70
2021/03/17 03:08:55;;;;;;;;;;;0.90;98.00;;;;;;5030879;28;20436;-70
2021/03/17 03:11:22;;;;;;;;;;;0.90;98.00;;;;;;5013838;28;20005;-69
2021/03/17 03:13:48;;;;;;;;;;;1.00;98.00;;;;;;5017364;28;19927;-69
2021/03/17 03:16:14;;;;;;;;;;;1.00;98.00;;;;;;5022520;28;19917;-69
2021/03/17 03:18:41;;;;;;;;;;;1.00;98.00;;;;;;5025414;28;19967;-68
2021/03/17 03:21:07;;;;;;;;;;;1.00;98.00;;;;;;5024771;28;19914;-69
2021/03/17 03:23:33;;;;;;;;;;;1.00;98.00;;;;;;5033520;28;19925;-70
2021/03/17 03:25:59;;;;;;;;;;;1.00;98.00;;;;;;5028469;28;19913;-70
2021/03/17 03:28:24;;;;;;;;;;;1.00;98.00;;;;;;5019523;28;19920;-68
2021/03/17 03:30:51;;;;;;;;;;;1.00;98.00;;;;;;5007251;28;20041;-68
2021/03/17 03:33:17;;;;;;;;;;;1.00;98.00;;;;;;5018742;28;19913;-69
2021/03/17 03:35:47;;;;;;;;;;;1.00;98.00;;;;;;5017288;28;19917;-68
2021/03/17 03:38:12;;;;;;;;;;;1.10;98.00;;;;;;5016087;28;20821;-68
2021/03/17 03:40:39;;;;;;;;;;;1.10;98.00;;;;;;5029177;28;19929;-68
2021/03/17 03:43:05;;;;;;;;;;;1.10;98.00;;;;;;5016481;28;19913;-69
2021/03/17 03:45:30;;;;;;;;;;;1.10;98.00;;;;;;5031743;28;19913;-68
2021/03/17 03:47:56;;;;;;;;;;;1.10;98.00;;;;;;5019461;28;19913;-68
2021/03/17 03:50:22;;;;;;;;;;;1.10;98.00;;;;;;5015949;28;19949;-68
2021/03/17 03:53:03;;;;;;;;;;;1.10;98.00;;;;;;5018248;28;20362;-70
2021/03/17 03:55:33;;;;;;;;;;;1.10;98.00;;;;;;5023063;28;20982;-70
2021/03/17 03:58:01;;;;;;;;;;;1.10;98.00;;;;;;5019686;28;19925;-70
2021/03/17 04:00:26;;;;;;;;;;;1.10;98.00;;;;;;5021150;28;19921;-70
2021/03/17 04:02:52;;;;;;;;;;;1.10;98.00;;;;;;5015597;28;19968;-69
2021/03/17 04:05:21;;;;;;;;;;;1.10;98.00;;;;;;5027024;28;19957;-69
2021/03/17 04:07:48;;;;;;;;;;;1.00;98.00;;;;;;5026057;28;19968;-70
2021/03/17 04:10:14;;;;;;;;;;;1.00;98.00;;;;;;5019850;28;19925;-69
2021/03/17 04:12:41;;;;;;;;;;;1.00;98.00;;;;;;5028437;28;20298;-68
2021/03/17 04:15:08;;;;;;;;;;;1.10;98.00;;;;;;5030833;28;19918;-69
2021/03/17 04:17:37;;;;;;;;;;;1.00;98.00;;;;;;5015695;28;20000;-69
2021/03/17 04:20:10;;;;;;;;;;;1.00;98.00;;;;;;5022739;28;19914;-70
2021/03/17 04:22:37;;;;;;;;;;;1.10;98.00;;;;;;5017831;28;19917;-70
2021/03/17 04:25:03;;;;;;;;;;;1.10;98.00;;;;;;5023857;28;19967;-69
2021/03/17 04:27:29;;;;;;;;;;;1.00;98.00;;;;;;5026387;28;20367;-70
2021/03/17 04:29:55;;;;;;;;;;;1.10;98.00;;;;;;5029874;28;20015;-70
2021/03/17 04:32:22;;;;;;;;;;;1.10;98.00;;;;;;5034995;28;19917;-70
2021/03/17 04:34:48;;;;;;;;;;;1.10;98.00;;;;;;5026989;28;20369;-70
2021/03/17 04:37:15;;;;;;;;;;;1.00;98.00;;;;;;5021705;28;19914;-70
2021/03/17 04:39:41;;;;;;;;;;;1.00;98.00;;;;;;5020055;28;19918;-70
2021/03/17 04:42:07;;;;;;;;;;;1.00;98.00;;;;;;5026267;28;19936;-70
2021/03/17 04:44:33;;;;;;;;;;;1.10;98.00;;;;;;5021594;28;20195;-67
2021/03/17 04:46:59;;;;;;;;;;;1.10;98.00;;;;;;5023005;28;19921;-71
2021/03/17 04:49:25;;;;;;;;;;;1.10;98.00;;;;;;5024984;28;19920;-71
2021/03/17 04:51:51;;;;;;;;;;;1.10;98.00;;;;;;5020633;28;19968;-71
2021/03/17 04:54:16;;;;;;;;;;;1.10;98.00;;;;;;5026478;28;19921;-69
2021/03/17 04:56:43;;;;;;;;;;;1.10;98.00;;;;;;5036053;28;19972;-67
2021/03/17 04:59:11;;;;;;;;;;;1.10;98.00;;;;;;5020243;28;19960;-71
2021/03/17 05:01:40;;;;;;;;;;;1.10;98.00;;;;;;5031327;28;20008;-69
2021/03/17 05:04:06;;;;;;;;;;;1.10;98.00;;;;;;5038062;28;20306;-68
2021/03/17 05:06:32;;;;;;;;;;;1.00;98.00;;;;;;5019540;28;19920;-69
2021/03/17 05:08:59;;;;;;;;;;;1.00;98.00;;;;;;5033464;28;20354;-69
2021/03/17 05:11:25;;;;;;;;;;;1.00;98.00;;;;;;5029260;28;20004;-70
2021/03/17 05:13:51;;;;;;;;;;;1.00;98.00;;;;;;5029958;28;20358;-70
2021/03/17 05:16:18;;;;;;;;;;;0.90;98.00;;;;;;5030490;28;19924;-69
2021/03/17 05:18:44;;;;;;;;;;;0.90;98.00;;;;;;5019678;28;19922;-70
2021/03/17 05:21:09;;;;;;;;;;;0.90;98.00;;;;;;5030564;28;19913;-70
2021/03/17 05:23:37;;;;;;;;;;;0.90;98.00;;;;;;5026515;28;19913;-69
2021/03/17 05:26:02;;;;;;;;;;;0.90;98.00;;;;;;5021087;28;19913;-68
2021/03/17 05:28:28;;;;;;;;;;;0.90;98.00;;;;;;5025133;28;19920;-67
2021/03/17 05:30:54;;;;;;;;;;;0.90;98.00;;;;;;5018183;28;19959;-70
2021/03/17 05:33:26;;;;;;;;;;;1.00;98.00;;;;;;5018716;28;20000;-69
2021/03/17 05:35:51;;;;;;;;;;;0.90;98.00;;;;;;5028061;28;19921;-69
2021/03/17 05:38:19;;;;;;;;;;;0.90;98.00;;;;;;5019595;28;20324;-70
2021/03/17 05:40:45;;;;;;;;;;;1.00;98.00;;;;;;5027197;28;19940;-68
2021/03/17 05:43:12;;;;;;;;;;;0.90;98.00;;;;;;5035661;28;21239;-69
2021/03/17 05:45:38;;;;;;;;;;;1.00;98.00;;;;;;5034187;28;19913;-69
2021/03/17 05:48:04;;;;;;;;;;;0.90;98.00;;;;;;5043361;28;20473;-68
2021/03/17 05:50:30;;;;;;;;;;;1.00;98.00;;;;;;5036478;28;19913;-68
2021/03/17 05:52:56;;;;;;;;;;;0.90;98.00;;;;;;5036457;28;20296;-70
2021/03/17 05:55:21;;;;;;;;;;;0.90;98.00;;;;;;5036169;28;20276;-69
2021/03/17 05:57:47;;;;;;;;;;;0.90;98.00;;;;;;5035452;28;19913;-69
2021/03/17 06:00:17;;;;;;;;;;;0.90;98.00;;;;;;5034946;28;19920;-70
2021/03/17 06:02:42;;;;;;;;;;;0.90;98.00;;;;;;5036036;28;20199;-69
2021/03/17 06:05:09;;;;;;;;;;;1.00;98.00;;;;;;5035189;28;19920;-69
2021/03/17 06:07:56;;;;;;;;;;;1.00;98.00;;;;;;5036513;28;19924;-68
2021/03/17 06:10:22;;;;;;;;;;;1.00;98.00;;;;;;5035347;28;19920;-68
2021/03/17 06:12:49;;;;;;;;;;;1.10;98.00;;;;;;5035576;28;20011;-69
2021/03/17 06:15:15;;;;;;;;;;;1.10;98.00;;;;;;5033746;28;19921;-68
2021/03/17 06:17:43;;;;;;;;;;;1.10;98.00;;;;;;5035864;28;20330;-68
2021/03/17 06:20:09;;;;;;;;;;;1.20;98.00;;;;;;5035051;28;19913;-68
2021/03/17 06:22:35;;;;;;;;;;;1.30;98.00;;;;;;5025662;28;19965;-69
2021/03/17 06:25:05;;;;;;;;;;;1.20;98.00;;;;;;5036351;28;19913;-68
2021/03/17 06:27:33;;;;;;;;;;;1.30;98.00;;;;;;5034878;28;19920;-68
2021/03/17 06:29:59;;;;;;;;;;;1.30;98.00;;;;;;5035518;28;19916;-69
2021/03/17 06:32:26;;;;;;;;;;;1.20;98.00;;;;;;5036339;28;19913;-68
2021/03/17 06:34:52;;;;;;;;;;;1.20;98.00;;;;;;5036340;28;19921;-68
2021/03/17 06:37:17;;;;;;;;;;;1.20;98.00;;;;;;5036423;28;19909;-68
2021/03/17 06:39:43;;;;;;;;;;;1.20;98.00;;;;;;5036095;28;19920;-68
2021/03/17 06:42:09;;;;;;;;;;;1.30;98.00;;;;;;5034841;28;19975;-68
2021/03/17 06:44:38;;;;;;;;;;;1.30;98.00;;;;;;5034706;28;19917;-68
2021/03/17 06:47:09;;;;;;;;;;;1.30;98.00;;;;;;5035838;28;19920;-70
2021/03/17 06:49:35;;;;;;;;;;;1.20;98.00;;;;;;5035270;28;20288;-70
2021/03/17 06:52:21;;;;;;;;;;;1.20;98.00;;;;;;5036076;28;20486;-69
2021/03/17 06:55:13;;;;;;;;;;;1.20;98.00;;;;;;5018810;28;19940;-70
2021/03/17 06:57:43;;;;;;;;;;;1.20;98.00;;;;;;5032716;28;19952;-70
2021/03/17 07:00:15;;;;;;;;;;;1.20;98.00;;;;;;5017390;28;19909;-69
2021/03/17 07:02:41;;;;;;;;;;;1.20;98.00;;;;;;5035729;28;19909;-70
2021/03/17 07:05:07;;;;;;;;;;;1.20;98.00;;;;;;5036007;28;19924;-69
2021/03/17 07:07:45;;;;;;;;;;;1.20;98.00;;;;;;5035722;28;20277;-69
2021/03/17 07:10:10;;;;;;;;;;;1.20;98.00;;;;;;5016185;28;19992;-70
2021/03/17 07:12:36;;;;;;;;;;;1.30;98.00;;;;;;5016625;28;19909;-70
2021/03/17 07:15:08;;;;;;;;;;;1.30;98.00;;;;;;5034404;28;19916;-69
2021/03/17 07:17:33;;;;;;;;;;;1.30;98.00;;;;;;5035457;28;19917;-70
2021/03/17 07:19:59;;;;;;;;;;;1.30;98.00;;;;;;5035906;28;19913;-70
2021/03/17 07:22:25;;;;;;;;;;;1.30;98.00;;;;;;5035521;28;19913;-70
2021/03/17 07:24:54;;;;;;;;;;;1.30;98.00;;;;;;5035594;28;19909;-70
2021/03/17 07:27:22;;;;;;;;;;;1.30;98.00;;;;;;5035431;28;20007;-70
2021/03/17 07:30:00;;;;;;;;;;;1.40;98.00;;;;;;5033600;28;19909;-71
2021/03/17 07:32:26;;;;;;;;;;;1.40;98.00;;;;;;5035644;28;19913;-71
2021/03/17 07:34:51;;;;;;;;;;;1.40;98.00;;;;;;5035473;28;19921;-70
2021/03/17 07:37:17;;;;;;;;;;;1.40;98.00;;;;;;5035115;28;19913;-70
2021/03/17 07:39:43;;;;;;;;;;;1.50;98.00;;;;;;5017964;28;19916;-68
2021/03/17 07:42:10;;;;;;;;;;;1.50;98.00;;;;;;5035020;28;19972;-70
2021/03/17 07:44:36;;;;;;;;;;;1.60;98.00;;;;;;5034191;28;20234;-70
2021/03/17 07:47:03;;;;;;;;;;;1.50;98.00;;;;;;5035187;28;19913;-70
2021/03/17 07:49:29;;;;;;;;;;;1.50;98.00;;;;;;5034168;28;19924;-71
2021/03/17 07:51:56;;;;;;;;;;;1.50;98.00;;;;;;5035278;28;19909;-69
2021/03/17 07:54:27;;;;;;;;;;;1.50;98.00;;;;;;5035180;28;19939;-69
2021/03/17 07:56:53;;;;;;;;;;;1.40;98.00;;;;;;5018356;28;20261;-71
2021/03/17 07:59:21;;;;;;;;;;;1.30;98.00;;;;;;5027127;28;20008;-70
2021/03/17 08:01:47;;;;;;;;;;;1.20;98.00;;;;;;5039050;28;19917;-70
2021/03/17 08:04:16;;;;;;;;;;;1.10;98.00;;;;;;5021556;28;19909;-69
2021/03/17 08:06:42;;;;;;;;;;;1.10;98.00;;;;;;5039219;28;19909;-71
2021/03/17 08:09:07;;;;;;;;;;;1.10;98.00;;;;;;5038908;28;19920;-71
2021/03/17 08:11:34;;;;;;;;;;;1.10;98.00;;;;;;5039038;28;19960;-71
2021/03/17 08:14:00;;;;;;;;;;;1.10;98.00;;;;;;5030693;28;20286;-69
2021/03/17 08:16:32;;;;;;;;;;;1.20;98.00;;;;;;5038786;28;19924;-69
2021/03/17 08:18:58;;;;;;;;;;;1.20;98.00;;;;;;5038628;28;19959;-70
2021/03/17 08:21:42;;;;;;;;;;;1.20;98.00;;;;;;5039050;28;20285;-70
2021/03/17 08:24:07;;;;;;;;;;;1.20;98.00;;;;;;5038587;28;19913;-71
2021/03/17 08:26:43;;;;;;;;;;;1.20;98.00;;;;;;5038335;28;19920;-70
2021/03/17 08:29:12;;;;;;;;;;;1.30;98.00;;;;;;5037442;28;20377;-70
2021/03/17 08:31:38;;;;;;;;;;;1.30;98.00;;;;;;5038371;28;19914;-69
2021/03/17 08:34:19;;;;;;;;;;;1.50;98.00;;;;;;5021191;28;19959;-70
2021/03/17 08:36:45;;;;;;;;;;;1.60;98.00;;;;;;5024149;28;19924;-72
2021/03/17 08:39:10;;;;;;;;;;;1.70;98.00;;;;;;5038432;28;20256;-71
2021/03/17 08:41:36;;;;;;;;;;;1.80;98.00;;;;;;5037935;28;19921;-71
2021/03/17 08:44:12;;;;;;;;;;;2.00;98.00;;;;;;5019910;28;20643;-71
2021/03/17 08:46:38;;;;;;;;;;;2.20;98.00;;;;;;5017062;28;19983;-71
2021/03/17 08:49:04;;;;;;;;;;;2.20;98.00;;;;;;5023491;28;19914;-69
2021/03/17 08:51:45;;;;;;;;;;;2.20;98.00;;;;;;5038204;28;19913;-70
2021/03/17 08:54:29;;;;;;;;;;;2.30;98.00;;;;;;5038026;28;20250;-69
2021/03/17 08:56:55;;;;;;;;;;;2.50;98.00;;;;;;5017348;28;19940;-70
2021/03/17 08:59:21;;;;;;;;;;;2.80;98.00;;;;;;5019164;28;19909;-70
2021/03/17 09:01:46;;;;;;;;;;;2.90;98.00;;;;;;5047916;28;19916;-69
2021/03/17 09:04:33;;;;;;;;;;;2.90;98.00;;;;;;5037928;28;19909;-70
2021/03/17 09:07:05;;;;;;;;;;;2.80;98.00;;;;;;5037830;28;20245;-70
2021/03/17 09:09:43;;;;;;;;;;;2.70;98.00;;;;;;5039143;28;20328;-68
2021/03/17 09:12:09;;;;;;;;;;;2.70;98.00;;;;;;5026709;28;20251;-69
2021/03/17 09:14:35;;;;;;;;;;;2.40;98.00;;;;;;5035227;28;20004;-69
2021/03/17 09:17:08;;;;;;;;;;;2.40;98.00;;;;;;5037663;28;19978;-70
2021/03/17 09:19:52;;;;;;;;;;;2.50;98.00;;;;;;5020074;28;19913;-68
2021/03/17 09:22:30;;;;;;;;;;;2.70;98.00;;;;;;5037634;28;19916;-69
2021/03/17 09:24:55;;;;;;;;;;;2.90;98.00;;;;;;5067212;22;19932;-71
2021/03/17 09:27:21;;;;;;;;;;;3.20;98.00;;;;;;5057042;28;19966;-70
2021/03/17 09:29:48;;;;;;;;;;;3.60;98.00;;;;;;5056447;28;20309;-70
2021/03/17 09:32:14;;;;;;;;;;;3.90;98.00;;;;;;5057385;28;19916;-71
2021/03/17 09:34:40;;;;;;;;;;;4.40;98.00;;;;;;5057166;28;19909;-70
2021/03/17 09:37:06;;;;;;;;;;;5.10;98.00;;;;;;5048973;28;19921;-71
2021/03/17 09:39:33;;;;;;;;;;;5.10;96.80;;;;;;5055461;28;19917;-70
2021/03/17 09:41:58;;;;;;;;;;;4.70;97.50;;;;;;5046224;28;19909;-70
2021/03/17 09:44:24;;;;;;;;;;;4.50;97.40;;;;;;5056006;28;20324;-72
2021/03/17 09:46:53;;;;;;;;;;;4.20;98.00;;;;;;5056527;28;19913;-70
2021/03/17 09:49:20;;;;;;;;;;;4.10;97.90;;;;;;5047906;28;19913;-70
2021/03/17 09:51:52;;;;;;;;;;;4.10;98.00;;;;;;5049756;28;19916;-70
2021/03/17 09:54:24;;;;;;;;;;;4.10;98.00;;;;;;5039586;28;19915;-71
2021/03/17 09:56:51;;;;;;;;;;;3.90;97.70;;;;;;5057026;28;20281;-70
2021/03/17 09:59:16;;;;;;;;;;;3.90;98.00;;;;;;5036380;28;20193;-70
2021/03/17 10:01:58;;;;;;;;;;;3.80;98.00;;;;;;5037227;28;19920;-71
2021/03/17 10:04:34;;;;;;;;;;;3.80;97.90;;;;;;5041145;28;19912;-70
2021/03/17 10:07:00;;;;;;;;;;;4.00;97.90;;;;;;5037031;28;19913;-70
2021/03/17 10:09:27;;;;;;;;;;;4.40;96.20;;;;;;5036073;28;19921;-70
2021/03/17 10:11:58;;;;;;;;;;;4.40;95.80;;;;;;5056347;28;19978;-70
2021/03/17 10:14:24;;;;;;;;;;;5.10;95.20;;;;;;5041082;28;19922;-70
2021/03/17 10:16:50;;;;;;;;;;;5.40;92.80;;;;;;5036891;28;20379;-69
2021/03/17 10:19:18;;;;;;;;;;;5.90;93.00;;;;;;5050315;28;19959;-70
2021/03/17 10:21:44;;;;;;;;;;;6.00;91.60;;;;;;5055535;28;20365;-70
2021/03/17 10:24:11;;;;;;;;;;;5.80;90.60;;;;;;5042066;28;20000;-71
2021/03/17 10:26:37;;;;;;;;;;;6.20;91.30;;;;;;5037848;28;19919;-69
2021/03/17 10:29:03;;;;;;;;;;;6.50;88.10;;;;;;5035655;28;19909;-70
2021/03/17 10:31:33;;;;;;;;;;;6.50;86.50;;;;;;5040026;28;19956;-70
2021/03/17 10:33:59;;;;;;;;;;;6.60;86.20;;;;;;5037524;28;20007;-69
2021/03/17 10:36:25;;;;;;;;;;;6.50;83.80;;;;;;5049124;28;20286;-69
2021/03/17 10:38:51;;;;;;;;;;;6.10;85.30;;;;;;5054293;28;20229;-69
2021/03/17 10:41:35;;;;;;;;;;;5.80;84.90;;;;;;5037904;28;19909;-70
2021/03/17 10:44:14;;;;;;;;;;;5.80;85.40;;;;;;5027726;28;19983;-70
2021/03/17 10:46:55;;;;;;;;;;;5.90;85.00;;;;;;5037451;28;19959;-69
2021/03/17 10:49:21;;;;;;;;;;;5.80;84.70;;;;;;5046162;28;19913;-69
2021/03/17 10:51:50;;;;;;;;;;;5.90;85.80;;;;;;5052519;28;20269;-69
2021/03/17 10:54:15;;;;;;;;;;;6.10;88.00;;;;;;5036061;28;19918;-68
2021/03/17 10:56:49;;;;;;;;;;;6.60;85.20;;;;;;5038118;28;20306;-70
2021/03/17 10:59:22;;;;;;;;;;;7.70;83.60;;;;;;5054828;28;19916;-70
2021/03/17 11:01:48;;;;;;;;;;;7.80;79.80;;;;;;5035754;28;19932;-70
2021/03/17 11:04:17;;;;;;;;;;;8.30;80.50;;;;;;5040065;28;19917;-70
2021/03/17 11:06:56;;;;;;;;;;;9.40;78.10;;;;;;5055380;28;19908;-69
2021/03/17 11:09:21;;;;;;;;;;;9.40;77.70;;;;;;5035920;28;19913;-70
2021/03/17 11:11:50;;;;;;;;;;;9.00;75.60;;;;;;5036770;28;20252;-69
2021/03/17 11:14:35;;;;;;;;;;;8.20;76.20;;;;;;5052898;28;19958;-70
2021/03/17 11:17:05;;;;;;;;;;;7.90;80.30;;;;;;5036070;28;20423;-68
2021/03/17 11:19:31;;;;;;;;;;;8.30;78.50;;;;;;5054847;28;19912;-70
2021/03/17 11:21:57;;;;;;;;;;;9.20;76.80;;;;;;5055793;28;19908;-69
2021/03/17 11:24:22;;;;;;;;;;;9.50;75.00;;;;;;5043201;28;19924;-69
2021/03/17 11:26:49;;;;;;;;;;;9.60;72.00;;;;;;5054236;28;19913;-69
2021/03/17 11:29:16;;;;;;;;;;;9.90;75.40;;;;;;5034580;28;20317;-70
2021/03/17 11:31:42;;;;;;;;;;;10.40;72.60;;;;;;5046468;28;19920;-70
2021/03/17 11:34:09;;;;;;;;;;;10.40;71.20;;;;;;5056170;28;20228;-70
2021/03/17 11:36:35;;;;;;;;;;;10.10;73.60;;;;;;5050197;28;20321;-69
2021/03/17 11:39:03;;;;;;;;;;;10.80;71.30;;;;;;5039867;28;19916;-70
2021/03/17 11:41:28;;;;;;;;;;;10.00;71.20;;;;;;5046976;28;19912;-68
2021/03/17 11:43:54;;;;;;;;;;;8.90;72.30;;;;;;5057805;28;20680;-70
2021/03/17 11:46:19;;;;;;;;;;;7.90;72.90;;;;;;5059661;28;19971;-69
2021/03/17 11:48:46;;;;;;;;;;;7.10;76.40;;;;;;5041613;28;20008;-68
2021/03/17 11:51:11;;;;;;;;;;;6.60;78.70;;;;;;5040647;28;20008;-70
2021/03/17 11:53:37;;;;;;;;;;;6.50;79.10;;;;;;5039351;28;19999;-69
2021/03/17 11:56:04;;;;;;;;;;;6.80;79.30;;;;;;5057264;28;19924;-68
2021/03/17 11:58:29;;;;;;;;;;;6.80;79.30;;;;;;5041708;28;19944;-69
2021/03/17 12:00:55;;;;;;;;;;;7.40;80.30;;;;;;5041996;28;19971;-68
2021/03/17 12:03:20;;;;;;;;;;;8.20;77.30;;;;;;5049911;28;19948;-68
2021/03/17 12:05:46;;;;;;;;;;;8.00;75.40;;;;;;5044702;28;19913;-68
2021/03/17 12:08:12;;;;;;;;;;;7.70;75.30;;;;;;5039274;28;20306;-68
2021/03/17 12:10:38;;;;;;;;;;;7.60;76.00;;;;;;5041371;28;19928;-68
2021/03/17 12:13:04;;;;;;;;;;;7.50;77.30;;;;;;5050031;28;19927;-68
2021/03/17 12:15:29;;;;;;;;;;;7.60;77.10;;;;;;5038133;28;19917;-68
2021/03/17 12:17:55;;;;;;;;;;;8.30;75.60;;;;;;5044124;28;19931;-70
2021/03/17 12:20:24;;;;;;;;;;;8.20;73.30;;;;;;5059130;28;19991;-70
2021/03/17 12:22:50;;;;;;;;;;;8.20;75.20;;;;;;5055169;28;20294;-69
2021/03/17 12:25:16;;;;;;;;;;;8.00;74.10;;;;;;5047420;28;20460;-70
2021/03/17 12:27:42;;;;;;;;;;;8.20;73.50;;;;;;5058937;28;19919;-70
2021/03/17 12:30:12;;;;;;;;;;;8.00;75.00;;;;;;5057613;28;19909;-70
2021/03/17 12:32:38;;;;;;;;;;;7.50;76.70;;;;;;5058420;28;19928;-69
2021/03/17 12:35:05;;;;;;;;;;;6.80;78.60;;;;;;5058158;28;19909;-69
2021/03/17 12:37:30;;;;;;;;;;;6.20;80.20;;;;;;5032298;28;19920;-69
2021/03/17 12:39:56;;;;;;;;;;;6.00;81.60;;;;;;5038797;28;19991;-69
2021/03/17 12:42:21;;;;;;;;;;;5.80;82.50;;;;;;5038604;28;20224;-69
2021/03/17 12:44:47;;;;;;;;;;;5.60;83.50;;;;;;5037479;28;19909;-69
2021/03/17 12:47:13;;;;;;;;;;;5.60;84.40;;;;;;5037784;28;20314;-69
2021/03/17 12:49:38;;;;;;;;;;;5.50;84.00;;;;;;5038344;28;19924;-69
2021/03/17 12:52:04;;;;;;;;;;;5.40;84.20;;;;;;5038443;28;20253;-69
2021/03/17 12:54:31;;;;;;;;;;;5.20;85.40;;;;;;5038687;28;20387;-69
2021/03/17 12:56:56;;;;;;;;;;;5.20;86.10;;;;;;5038325;28;19917;-69
2021/03/17 12:59:22;;;;;;;;;;;5.00;85.40;;;;;;5037115;28;19913;-69
2021/03/17 13:01:47;;;;;;;;;;;4.80;87.00;;;;;;5053007;28;19953;-69
2021/03/17 13:04:16;;;;;;;;;;;4.60;89.00;;;;;;5057275;28;20214;-68
2021/03/17 13:06:42;;;;;;;;;;;4.50;90.60;;;;;;5057024;28;19913;-69
2021/03/17 13:09:07;;;;;;;;;;;4.30;91.30;;;;;;5055254;28;19919;-70
2021/03/17 13:11:35;;;;;;;;;;;4.50;92.60;;;;;;5038001;28;19920;-70
2021/03/17 13:14:01;;;;;;;;;;;4.50;91.50;;;;;;5042328;28;20375;-69
2021/03/17 13:16:26;;;;;;;;;;;4.60;90.80;;;;;;5039080;28;19952;-69
2021/03/17 13:18:52;;;;;;;;;;;4.50;90.30;;;;;;5045220;28;20343;-69
2021/03/17 13:21:18;;;;;;;;;;;4.40;90.70;;;;;;5037921;28;19920;-70
2021/03/17 13:23:44;;;;;;;;;;;4.20;90.70;;;;;;5056502;28;19912;-69
2021/03/17 13:26:09;;;;;;;;;;;4.00;92.40;;;;;;5044696;28;20215;-69
2021/03/17 13:28:35;;;;;;;;;;;3.80;93.40;;;;;;5054920;28;19913;-69
2021/03/17 13:31:01;;;;;;;;;;;3.60;94.10;;;;;;5057160;28;19944;-70
2021/03/17 13:33:27;;;;;;;;;;;3.40;95.50;;;;;;5057070;28;19967;-70
2021/03/17 13:35:52;;;;;;;;;;;3.00;96.30;;;;;;5057478;28;19967;-69
2021/03/17 13:38:18;;;;;;;;;;;2.70;97.00;;;;;;5055261;28;19967;-70
2021/03/17 13:40:44;;;;;;;;;;;2.60;97.20;;;;;;5037785;28;19909;-69
2021/03/17 13:43:10;;;;;;;;;;;2.50;97.40;;;;;;5037479;28;20272;-70
2021/03/17 13:45:35;;;;;;;;;;;2.40;97.70;;;;;;5030312;28;19913;-71
2021/03/17 13:48:01;;;;;;;;;;;2.40;97.70;;;;;;5033143;28;19908;-70
2021/03/17 13:50:28;;;;;;;;;;;2.40;98.00;;;;;;5057007;28;20297;-70
2021/03/17 13:52:56;;;;;;;;;;;2.30;97.80;;;;;;5056224;28;20407;-70
2021/03/17 13:55:21;;;;;;;;;;;2.10;98.00;;;;;;5052315;28;19924;-71
2021/03/17 13:57:47;;;;;;;;;;;2.00;97.90;;;;;;5044347;28;19913;-70
2021/03/17 14:00:14;;;;;;;;;;;1.90;97.90;;;;;;5042998;28;19913;-71
2021/03/17 14:02:41;;;;;;;;;;;1.80;97.90;;;;;;5037079;28;19940;-70
2021/03/17 14:05:06;;;;;;;;;;;1.80;98.00;;;;;;5039578;28;19917;-70
2021/03/17 14:07:32;;;;;;;;;;;1.90;98.00;;;;;;5037599;28;19924;-71
2021/03/17 14:09:57;;;;;;;;;;;2.00;98.00;;;;;;5048153;28;20003;-71
2021/03/17 14:12:23;;;;;;;;;;;2.30;98.00;;;;;;5056891;28;20018;-69
2021/03/17 14:14:48;;;;;;;;;;;2.90;98.00;;;;;;5045930;28;19913;-69
2021/03/17 14:17:14;;;;;;;;;;;3.20;98.00;;;;;;5032458;28;20332;-70
2021/03/17 14:19:40;;;;;;;;;;;3.50;98.00;;;;;;5049010;28;19959;-70
2021/03/17 14:22:05;;;;;;;;;;;4.00;98.00;;;;;;5053692;28;20214;-69
2021/03/17 14:24:31;;;;;;;;;;;3.80;98.00;;;;;;5043149;28;19979;-71
2021/03/17 14:26:57;;;;;;;;;;;3.60;98.00;;;;;;5036733;28;19909;-68
2021/03/17 14:29:25;;;;;;;;;;;3.60;98.00;;;;;;5038854;28;19919;-69
2021/03/17 14:31:51;;;;;;;;;;;3.30;98.00;;;;;;5056491;28;19909;-69
2021/03/17 14:34:16;;;;;;;;;;;3.00;98.00;;;;;;5036388;28;20634;-69